sensor_id;sensor_type;location;lat;lon;timestamp;pressure;altitude;pressure_sealevel;temperature;humidity
61554;BME280;47425;51.976;5.326;2023-04-30T00:01:09;102236.50;;;10.83;58.47
61554;BME280;47425;51.976;5.326;2023-04-30T00:03:35;102236.50;;;10.77;58.49
61554;BME280;47425;51.976;5.326;2023-04-30T00:06:02;102241.72;;;10.63;58.82
61554;BME280;47425;51.976;5.326;2023-04-30T00:08:28;102243.44;;;10.50;58.95
61554;BME280;47425;51.976;5.326;2023-04-30T00:10:56;102240.81;;;10.42;59.28
61554;BME280;47425;51.976;5.326;2023-04-30T00:13:22;102237.31;;;10.41;59.17
61554;BME280;47425;51.976;5.326;2023-04-30T00:15:50;102238.16;;;10.36;59.20
61554;BME280;47425;51.976;5.326;2023-04-30T00:18:16;102238.09;;;10.27;59.46
61554;BME280;47425;51.976;5.326;2023-04-30T00:20:44;102236.34;;;10.21;59.64
61554;BME280;47425;51.976;5.326;2023-04-30T00:23:11;102240.69;;;10.17;59.68
61554;BME280;47425;51.976;5.326;2023-04-30T00:25:37;102238.09;;;10.22;59.57
61554;BME280;47425;51.976;5.326;2023-04-30T00:28:05;102235.50;;;10.31;59.70
61554;BME280;47425;51.976;5.326;2023-04-30T00:30:31;102237.31;;;10.38;59.49
61554;BME280;47425;51.976;5.326;2023-04-30T00:32:59;102234.69;;;10.38;59.35
61554;BME280;47425;51.976;5.326;2023-04-30T00:35:25;102233.81;;;10.41;59.34
61554;BME280;47425;51.976;5.326;2023-04-30T00:37:53;102237.31;;;10.43;59.21
61554;BME280;47425;51.976;5.326;2023-04-30T00:40:19;102239.06;;;10.44;58.96
61554;BME280;47425;51.976;5.326;2023-04-30T00:42:46;102239.91;;;10.45;58.80
61554;BME280;47425;51.976;5.326;2023-04-30T00:45:13;102242.56;;;10.49;58.91
61554;BME280;47425;51.976;5.326;2023-04-30T00:47:43;102241.72;;;10.53;59.03
61554;BME280;47425;51.976;5.326;2023-04-30T00:50:11;102249.56;;;10.55;58.89
61554;BME280;47425;51.976;5.326;2023-04-30T00:52:40;102254.78;;;10.47;58.75
61554;BME280;47425;51.976;5.326;2023-04-30T00:55:08;102251.25;;;10.37;58.68
61554;BME280;47425;51.976;5.326;2023-04-30T00:57:35;102254.72;;;10.29;58.90
61554;BME280;47425;51.976;5.326;2023-04-30T01:00:02;102245.91;;;10.14;59.22
61554;BME280;47425;51.976;5.326;2023-04-30T01:02:29;102250.25;;;10.07;59.56
61554;BME280;47425;51.976;5.326;2023-04-30T01:04:57;102254.63;;;10.08;59.32
61554;BME280;47425;51.976;5.326;2023-04-30T01:07:25;102247.63;;;10.04;59.50
61554;BME280;47425;51.976;5.326;2023-04-30T01:09:52;102243.25;;;10.08;59.57
61554;BME280;47425;51.976;5.326;2023-04-30T01:12:19;102249.41;;;10.12;59.59
61554;BME280;47425;51.976;5.326;2023-04-30T01:14:52;102244.16;;;10.10;59.44
61554;BME280;47425;51.976;5.326;2023-04-30T01:17:24;102240.66;;;10.10;59.38
61554;BME280;47425;51.976;5.326;2023-04-30T01:19:54;102247.63;;;10.09;59.33
61554;BME280;47425;51.976;5.326;2023-04-30T01:22:28;102244.13;;;10.07;59.54
61554;BME280;47425;51.976;5.326;2023-04-30T01:25:00;102248.50;;;10.08;59.38
61554;BME280;47425;51.976;5.326;2023-04-30T01:27:46;102247.59;;;10.03;59.21
61554;BME280;47425;51.976;5.326;2023-04-30T01:30:15;102247.56;;;9.92;59.72
61554;BME280;47425;51.976;5.326;2023-04-30T01:32:43;102249.25;;;9.84;59.87
61554;BME280;47425;51.976;5.326;2023-04-30T01:35:09;102252.72;;;9.78;59.95
61554;BME280;47425;51.976;5.326;2023-04-30T01:37:38;102258.78;;;9.71;60.37
61554;BME280;47425;51.976;5.326;2023-04-30T01:40:17;102259.63;;;9.65;60.43
61554;BME280;47425;51.976;5.326;2023-04-30T01:42:51;102265.69;;;9.60;60.72
61554;BME280;47425;51.976;5.326;2023-04-30T01:45:27;102261.31;;;9.60;60.72
61554;BME280;47425;51.976;5.326;2023-04-30T01:48:02;102257.00;;;9.62;60.69
61554;BME280;47425;51.976;5.326;2023-04-30T01:50:37;102258.69;;;9.54;60.73
61554;BME280;47425;51.976;5.326;2023-04-30T01:53:05;102252.47;;;9.39;61.53
61554;BME280;47425;51.976;5.326;2023-04-30T01:55:33;102257.69;;;9.35;61.52
61554;BME280;47425;51.976;5.326;2023-04-30T01:58:04;102258.53;;;9.31;61.79
61554;BME280;47425;51.976;5.326;2023-04-30T02:00:31;102261.09;;;9.29;61.80
61554;BME280;47425;51.976;5.326;2023-04-30T02:03:00;102255.88;;;9.29;61.92
61554;BME280;47425;51.976;5.326;2023-04-30T02:05:28;102266.38;;;9.32;61.90
61554;BME280;47425;51.976;5.326;2023-04-30T02:07:54;102269.00;;;9.35;61.62
61554;BME280;47425;51.976;5.326;2023-04-30T02:10:22;102265.47;;;9.29;61.73
61554;BME280;47425;51.976;5.326;2023-04-30T02:12:50;102268.06;;;9.27;61.93
61554;BME280;47425;51.976;5.326;2023-04-30T02:15:18;102261.13;;;9.31;61.66
61554;BME280;47425;51.976;5.326;2023-04-30T02:17:45;102260.25;;;9.32;61.46
61554;BME280;47425;51.976;5.326;2023-04-30T02:20:13;102264.63;;;9.33;61.50
61554;BME280;47425;51.976;5.326;2023-04-30T02:22:39;102260.25;;;9.32;61.55
61554;BME280;47425;51.976;5.326;2023-04-30T02:25:06;102258.47;;;9.26;61.78
61554;BME280;47425;51.976;5.326;2023-04-30T02:27:33;102260.22;;;9.24;61.68
61554;BME280;47425;51.976;5.326;2023-04-30T02:29:59;102267.09;;;9.14;61.62
61554;BME280;47425;51.976;5.326;2023-04-30T02:32:28;102267.81;;;8.98;62.27
61554;BME280;47425;51.976;5.326;2023-04-30T02:34:54;102267.72;;;8.87;62.98
61554;BME280;47425;51.976;5.326;2023-04-30T02:37:22;102263.31;;;8.80;62.70
61554;BME280;47425;51.976;5.326;2023-04-30T02:39:49;102259.78;;;8.76;63.17
61554;BME280;47425;51.976;5.326;2023-04-30T02:42:16;102258.88;;;8.72;63.05
61554;BME280;47425;51.976;5.326;2023-04-30T02:44:42;102250.13;;;8.69;63.72
61554;BME280;47425;51.976;5.326;2023-04-30T02:47:10;102245.72;;;8.65;63.77
61554;BME280;47425;51.976;5.326;2023-04-30T02:49:38;102249.16;;;8.61;64.09
61554;BME280;47425;51.976;5.326;2023-04-30T02:52:04;102248.22;;;8.54;64.23
61554;BME280;47425;51.976;5.326;2023-04-30T02:54:32;102243.00;;;8.52;64.38
61554;BME280;47425;51.976;5.326;2023-04-30T02:56:59;102246.47;;;8.51;64.78
61554;BME280;47425;51.976;5.326;2023-04-30T02:59:25;102245.59;;;8.52;64.63
61554;BME280;47425;51.976;5.326;2023-04-30T03:01:52;102251.72;;;8.53;64.72
61554;BME280;47425;51.976;5.326;2023-04-30T03:04:20;102236.09;;;8.61;64.94
61554;BME280;47425;51.976;5.326;2023-04-30T03:06:48;102245.78;;;8.71;64.68
61554;BME280;47425;51.976;5.326;2023-04-30T03:09:14;102251.97;;;8.81;64.05
61554;BME280;47425;51.976;5.326;2023-04-30T03:11:41;102255.47;;;8.81;64.20
61554;BME280;47425;51.976;5.326;2023-04-30T03:14:09;102267.69;;;8.84;64.18
61554;BME280;47425;51.976;5.326;2023-04-30T03:16:35;102250.28;;;8.87;63.97
61554;BME280;47425;51.976;5.326;2023-04-30T03:19:02;102253.06;;;9.01;63.53
61554;BME280;47425;51.976;5.326;2023-04-30T03:21:29;102249.69;;;9.15;63.05
61554;BME280;47425;51.976;5.326;2023-04-30T03:23:58;102248.88;;;9.23;62.72
61554;BME280;47425;51.976;5.326;2023-04-30T03:26:24;102239.31;;;9.26;62.66
61554;BME280;47425;51.976;5.326;2023-04-30T03:28:51;102234.09;;;9.27;62.39
61554;BME280;47425;51.976;5.326;2023-04-30T03:31:20;102239.25;;;9.21;62.23
61554;BME280;47425;51.976;5.326;2023-04-30T03:33:46;102241.00;;;9.20;62.19
61554;BME280;47425;51.976;5.326;2023-04-30T03:36:13;102236.63;;;9.15;62.27
61554;BME280;47425;51.976;5.326;2023-04-30T03:38:39;102242.69;;;9.11;62.38
61554;BME280;47425;51.976;5.326;2023-04-30T03:41:09;102240.91;;;9.10;62.38
61554;BME280;47425;51.976;5.326;2023-04-30T03:43:36;102240.09;;;9.17;62.17
61554;BME280;47425;51.976;5.326;2023-04-30T03:46:03;102235.84;;;9.27;62.23
61554;BME280;47425;51.976;5.326;2023-04-30T03:48:30;102240.25;;;9.34;61.88
61554;BME280;47425;51.976;5.326;2023-04-30T03:50:57;102243.78;;;9.44;61.75
61554;BME280;47425;51.976;5.326;2023-04-30T03:53:23;102252.53;;;9.46;61.33
61554;BME280;47425;51.976;5.326;2023-04-30T03:55:51;102245.53;;;9.43;61.28
61554;BME280;47425;51.976;5.326;2023-04-30T03:58:20;102240.25;;;9.35;61.08
61554;BME280;47425;51.976;5.326;2023-04-30T04:00:47;102249.75;;;9.24;61.28
61554;BME280;47425;51.976;5.326;2023-04-30T04:03:14;102243.56;;;9.13;61.48
61554;BME280;47425;51.976;5.326;2023-04-30T04:05:41;102243.53;;;9.06;61.84
61554;BME280;47425;51.976;5.326;2023-04-30T04:08:09;102246.94;;;9.01;62.14
61554;BME280;47425;51.976;5.326;2023-04-30T04:10:36;102245.25;;;9.06;61.93
61554;BME280;47425;51.976;5.326;2023-04-30T04:13:04;102248.78;;;9.14;61.95
61554;BME280;47425;51.976;5.326;2023-04-30T04:15:34;102243.69;;;9.27;61.91
61554;BME280;47425;51.976;5.326;2023-04-30T04:18:01;102238.47;;;9.33;61.50
61554;BME280;47425;51.976;5.326;2023-04-30T04:20:28;102249.84;;;9.36;61.55
61554;BME280;47425;51.976;5.326;2023-04-30T04:22:54;102237.63;;;9.35;60.93
61554;BME280;47425;51.976;5.326;2023-04-30T04:25:22;102243.72;;;9.34;61.19
61554;BME280;47425;51.976;5.326;2023-04-30T04:27:50;102244.59;;;9.33;60.86
61554;BME280;47425;51.976;5.326;2023-04-30T04:30:17;102246.31;;;9.33;60.93
61554;BME280;47425;51.976;5.326;2023-04-30T04:32:47;102246.31;;;9.31;60.87
61554;BME280;47425;51.976;5.326;2023-04-30T04:35:19;102241.09;;;9.31;60.84
61554;BME280;47425;51.976;5.326;2023-04-30T04:37:45;102249.84;;;9.33;60.66
61554;BME280;47425;51.976;5.326;2023-04-30T04:40:12;102253.41;;;9.49;60.83
61554;BME280;47425;51.976;5.326;2023-04-30T04:42:40;102263.91;;;9.57;60.68
61554;BME280;47425;51.976;5.326;2023-04-30T04:45:07;102256.97;;;9.61;60.74
61554;BME280;47425;51.976;5.326;2023-04-30T04:47:34;102264.91;;;9.73;60.67
61554;BME280;47425;51.976;5.326;2023-04-30T04:50:02;102255.41;;;9.89;60.40
61554;BME280;47425;51.976;5.326;2023-04-30T04:52:30;102257.25;;;10.12;60.54
61554;BME280;47425;51.976;5.326;2023-04-30T04:54:57;102254.72;;;10.33;60.31
61554;BME280;47425;51.976;5.326;2023-04-30T04:57:24;102254.84;;;10.60;59.83
61554;BME280;47425;51.976;5.326;2023-04-30T04:59:51;102254.84;;;10.70;59.19
61554;BME280;47425;51.976;5.326;2023-04-30T05:02:18;102249.59;;;10.75;58.96
61554;BME280;47425;51.976;5.326;2023-04-30T05:04:45;102249.59;;;10.73;58.80
61554;BME280;47425;51.976;5.326;2023-04-30T05:07:16;102246.13;;;10.74;58.86
61554;BME280;47425;51.976;5.326;2023-04-30T05:09:44;102255.72;;;10.83;59.27
61554;BME280;47425;51.976;5.326;2023-04-30T05:12:11;102247.88;;;10.86;58.74
61554;BME280;47425;51.976;5.326;2023-04-30T05:14:37;102244.38;;;10.83;58.91
61554;BME280;47425;51.976;5.326;2023-04-30T05:17:04;102250.47;;;10.85;59.02
61554;BME280;47425;51.976;5.326;2023-04-30T05:19:32;102250.50;;;10.94;59.37
61554;BME280;47425;51.976;5.326;2023-04-30T05:21:58;102257.50;;;10.95;58.71
61554;BME280;47425;51.976;5.326;2023-04-30T05:24:26;102257.50;;;10.90;58.52
61554;BME280;47425;51.976;5.326;2023-04-30T05:26:53;102259.22;;;10.87;58.82
61554;BME280;47425;51.976;5.326;2023-04-30T05:29:21;102259.22;;;10.87;58.99
61554;BME280;47425;51.976;5.326;2023-04-30T05:31:47;102261.88;;;10.96;59.67
61554;BME280;47425;51.976;5.326;2023-04-30T05:34:14;102267.13;;;11.15;59.35
61554;BME280;47425;51.976;5.326;2023-04-30T05:36:41;102260.13;;;11.35;59.32
61554;BME280;47425;51.976;5.326;2023-04-30T05:39:08;102261.81;;;11.59;58.49
61554;BME280;47425;51.976;5.326;2023-04-30T05:41:36;102263.56;;;11.70;58.42
61554;BME280;47425;51.976;5.326;2023-04-30T05:44:02;102256.50;;;11.83;58.29
61554;BME280;47425;51.976;5.326;2023-04-30T05:46:30;102258.25;;;11.95;58.12
61554;BME280;47425;51.976;5.326;2023-04-30T05:48:57;102259.06;;;12.15;57.76
61554;BME280;47425;51.976;5.326;2023-04-30T05:51:23;102250.19;;;12.42;57.04
61554;BME280;47425;51.976;5.326;2023-04-30T05:53:50;102255.34;;;12.56;56.45
61554;BME280;47425;51.976;5.326;2023-04-30T05:56:16;102264.81;;;12.82;56.04
61554;BME280;47425;51.976;5.326;2023-04-30T05:58:44;102257.78;;;12.87;55.78
61554;BME280;47425;51.976;5.326;2023-04-30T06:01:10;102269.09;;;12.96;55.60
61554;BME280;47425;51.976;5.326;2023-04-30T06:03:38;102264.75;;;12.93;54.94
61554;BME280;47425;51.976;5.326;2023-04-30T06:06:04;102265.72;;;12.81;55.57
61554;BME280;47425;51.976;5.326;2023-04-30T06:08:31;102268.41;;;12.69;55.52
61554;BME280;47425;51.976;5.326;2023-04-30T06:10:57;102269.44;;;12.41;55.34
61554;BME280;47425;51.976;5.326;2023-04-30T06:13:25;102268.56;;;12.42;56.48
61554;BME280;47425;51.976;5.326;2023-04-30T06:15:53;102265.78;;;12.73;55.71
61554;BME280;47425;51.976;5.326;2023-04-30T06:18:20;102270.13;;;12.73;55.38
61554;BME280;47425;51.976;5.326;2023-04-30T06:20:47;102265.81;;;12.64;55.87
61554;BME280;47425;51.976;5.326;2023-04-30T06:23:14;102272.84;;;12.59;56.08
61554;BME280;47425;51.976;5.326;2023-04-30T06:25:43;102267.56;;;12.65;55.99
61554;BME280;47425;51.976;5.326;2023-04-30T06:28:09;102263.34;;;12.41;55.48
61554;BME280;47425;51.976;5.326;2023-04-30T06:30:37;102265.06;;;12.42;56.00
61554;BME280;47425;51.976;5.326;2023-04-30T06:33:05;102268.53;;;12.50;56.06
61554;BME280;47425;51.976;5.326;2023-04-30T06:35:32;102261.47;;;12.62;56.44
61554;BME280;47425;51.976;5.326;2023-04-30T06:37:59;102266.53;;;12.91;56.01
61554;BME280;47425;51.976;5.326;2023-04-30T06:40:27;102275.19;;;13.04;55.62
61554;BME280;47425;51.976;5.326;2023-04-30T06:42:53;102273.41;;;13.07;55.32
61554;BME280;47425;51.976;5.326;2023-04-30T06:45:20;102288.28;;;13.15;55.19
61554;BME280;47425;51.976;5.326;2023-04-30T06:47:47;102282.16;;;13.11;55.34
61554;BME280;47425;51.976;5.326;2023-04-30T06:50:15;102279.53;;;13.09;54.82
61554;BME280;47425;51.976;5.326;2023-04-30T06:52:42;102286.53;;;13.09;55.26
61554;BME280;47425;51.976;5.326;2023-04-30T06:55:08;102283.88;;;13.14;55.15
61554;BME280;47425;51.976;5.326;2023-04-30T06:57:36;102284.59;;;13.39;55.17
61554;BME280;47425;51.976;5.326;2023-04-30T07:00:04;102287.88;;;13.61;54.42
61554;BME280;47425;51.976;5.326;2023-04-30T07:02:30;102293.91;;;13.74;54.19
61554;BME280;47425;51.976;5.326;2023-04-30T07:04:58;102299.06;;;13.85;53.58
61554;BME280;47425;51.976;5.326;2023-04-30T07:07:26;102293.56;;;14.05;53.27
61554;BME280;47425;51.976;5.326;2023-04-30T07:09:52;102298.84;;;14.02;52.92
61554;BME280;47425;51.976;5.326;2023-04-30T07:12:19;102299.19;;;13.71;52.97
61554;BME280;47425;51.976;5.326;2023-04-30T07:14:47;102311.59;;;13.59;53.57
61554;BME280;47425;51.976;5.326;2023-04-30T07:17:14;102305.53;;;13.50;53.57
61554;BME280;47425;51.976;5.326;2023-04-30T07:19:40;102308.28;;;13.36;54.39
61554;BME280;47425;51.976;5.326;2023-04-30T07:22:07;102302.91;;;13.51;54.38
61554;BME280;47425;51.976;5.326;2023-04-30T07:24:36;102303.81;;;13.47;54.40
61554;BME280;47425;51.976;5.326;2023-04-30T07:27:02;102312.34;;;13.72;54.22
61554;BME280;47425;51.976;5.326;2023-04-30T07:29:31;102300.59;;;14.03;53.55
61554;BME280;47425;51.976;5.326;2023-04-30T07:31:59;102302.84;;;14.35;52.81
61554;BME280;47425;51.976;5.326;2023-04-30T07:34:25;102285.88;;;14.56;52.46
61554;BME280;47425;51.976;5.326;2023-04-30T07:36:52;102293.03;;;14.47;51.49
61554;BME280;47425;51.976;5.326;2023-04-30T07:39:18;102289.66;;;14.35;51.93
61554;BME280;47425;51.976;5.326;2023-04-30T07:41:47;102292.47;;;14.21;51.83
61554;BME280;47425;51.976;5.326;2023-04-30T07:44:14;102292.38;;;14.29;52.16
61554;BME280;47425;51.976;5.326;2023-04-30T07:46:40;102289.75;;;14.29;52.46
61554;BME280;47425;51.976;5.326;2023-04-30T07:49:07;102285.13;;;14.47;52.03
61554;BME280;47425;51.976;5.326;2023-04-30T07:51:35;102276.06;;;14.69;51.67
61554;BME280;47425;51.976;5.326;2023-04-30T07:54:01;102286.16;;;15.00;51.16
61554;BME280;47425;51.976;5.326;2023-04-30T07:56:28;102290.34;;;15.14;50.63
61554;BME280;47425;51.976;5.326;2023-04-30T07:58:57;102286.38;;;14.85;50.88
61554;BME280;47425;51.976;5.326;2023-04-30T08:01:23;102291.88;;;14.69;51.25
61554;BME280;47425;51.976;5.326;2023-04-30T08:03:50;102289.16;;;14.74;51.59
61554;BME280;47425;51.976;5.326;2023-04-30T08:06:16;102289.66;;;15.01;51.51
61554;BME280;47425;51.976;5.326;2023-04-30T08:09:03;102291.91;;;15.25;50.05
61554;BME280;47425;51.976;5.326;2023-04-30T08:11:29;102296.63;;;15.58;49.80
61554;BME280;47425;51.976;5.326;2023-04-30T08:13:57;102301.59;;;15.73;48.94
61554;BME280;47425;51.976;5.326;2023-04-30T08:16:23;102300.28;;;15.98;48.37
61554;BME280;47425;51.976;5.326;2023-04-30T08:18:51;102300.63;;;16.24;48.27
61554;BME280;47425;51.976;5.326;2023-04-30T08:21:18;102297.09;;;16.25;47.46
61554;BME280;47425;51.976;5.326;2023-04-30T08:23:44;102298.53;;;15.97;48.58
61554;BME280;47425;51.976;5.326;2023-04-30T08:26:10;102305.69;;;15.93;48.63
61554;BME280;47425;51.976;5.326;2023-04-30T08:28:38;102289.44;;;16.13;48.38
61554;BME280;47425;51.976;5.326;2023-04-30T08:31:06;102299.84;;;16.19;48.30
61554;BME280;47425;51.976;5.326;2023-04-30T08:33:32;102300.22;;;16.44;47.93
61554;BME280;47425;51.976;5.326;2023-04-30T08:36:00;102302.56;;;16.57;47.37
61554;BME280;47425;51.976;5.326;2023-04-30T08:38:27;102301.41;;;16.30;46.88
61554;BME280;47425;51.976;5.326;2023-04-30T08:40:55;102298.88;;;16.23;48.09
61554;BME280;47425;51.976;5.326;2023-04-30T08:43:25;102307.31;;;16.42;48.00
61554;BME280;47425;51.976;5.326;2023-04-30T08:45:53;102299.47;;;16.78;47.54
61554;BME280;47425;51.976;5.326;2023-04-30T08:48:21;102307.16;;;16.91;47.20
61554;BME280;47425;51.976;5.326;2023-04-30T08:50:49;102296.03;;;16.75;45.98
61554;BME280;47425;51.976;5.326;2023-04-30T08:53:15;102292.72;;;16.64;47.87
61554;BME280;47425;51.976;5.326;2023-04-30T08:55:46;102290.06;;;16.65;45.93
61554;BME280;47425;51.976;5.326;2023-04-30T08:58:13;102295.56;;;16.56;47.79
61554;BME280;47425;51.976;5.326;2023-04-30T09:00:39;102296.91;;;16.74;47.81
61554;BME280;47425;51.976;5.326;2023-04-30T09:03:07;102291.88;;;17.02;47.66
61554;BME280;47425;51.976;5.326;2023-04-30T09:05:35;102298.25;;;17.30;46.91
61554;BME280;47425;51.976;5.326;2023-04-30T09:08:02;102291.94;;;17.35;45.39
61554;BME280;47425;51.976;5.326;2023-04-30T09:10:30;102287.47;;;17.37;46.41
61554;BME280;47425;51.976;5.326;2023-04-30T09:12:59;102284.72;;;17.42;46.77
61554;BME280;47425;51.976;5.326;2023-04-30T09:15:26;102288.34;;;17.38;45.49
61554;BME280;47425;51.976;5.326;2023-04-30T09:18:04;102290.97;;;17.39;46.65
61554;BME280;47425;51.976;5.326;2023-04-30T09:20:32;102280.31;;;17.41;46.56
61554;BME280;47425;51.976;5.326;2023-04-30T09:23:05;102287.84;;;17.58;46.65
61554;BME280;47425;51.976;5.326;2023-04-30T09:25:37;102283.00;;;17.72;46.11
61554;BME280;47425;51.976;5.326;2023-04-30T09:28:07;102292.44;;;17.83;45.62
61554;BME280;47425;51.976;5.326;2023-04-30T09:30:35;102290.16;;;17.70;45.15
61554;BME280;47425;51.976;5.326;2023-04-30T09:33:02;102288.44;;;17.68;46.03
61554;BME280;47425;51.976;5.326;2023-04-30T09:35:29;102281.16;;;17.76;45.96
61554;BME280;47425;51.976;5.326;2023-04-30T09:38:26;102288.28;;;17.74;45.22
61554;BME280;47425;51.976;5.326;2023-04-30T09:40:56;102284.34;;;17.87;45.54
61554;BME280;47425;51.976;5.326;2023-04-30T09:43:23;102280.72;;;17.93;45.92
61554;BME280;47425;51.976;5.326;2023-04-30T09:45:49;102280.25;;;18.08;45.99
61554;BME280;47425;51.976;5.326;2023-04-30T09:48:19;102282.53;;;18.22;44.89
61554;BME280;47425;51.976;5.326;2023-04-30T09:50:46;102273.22;;;18.07;43.45
61554;BME280;47425;51.976;5.326;2023-04-30T09:53:13;102272.44;;;17.71;44.68
61554;BME280;47425;51.976;5.326;2023-04-30T09:55:43;102264.03;;;17.88;45.61
61554;BME280;47425;51.976;5.326;2023-04-30T09:58:11;102262.56;;;17.77;43.26
61554;BME280;47425;51.976;5.326;2023-04-30T10:00:38;102264.75;;;17.61;44.80
61554;BME280;47425;51.976;5.326;2023-04-30T10:03:05;102260.78;;;17.78;45.66
61554;BME280;47425;51.976;5.326;2023-04-30T10:05:37;102256.88;;;17.93;45.11
61554;BME280;47425;51.976;5.326;2023-04-30T10:08:09;102251.59;;;17.91;44.15
61554;BME280;47425;51.976;5.326;2023-04-30T10:10:36;102254.97;;;17.98;45.14
61554;BME280;47425;51.976;5.326;2023-04-30T10:13:04;102248.41;;;18.10;44.46
61554;BME280;47425;51.976;5.326;2023-04-30T10:15:36;102247.50;;;18.11;44.61
61554;BME280;47425;51.976;5.326;2023-04-30T10:18:04;102235.66;;;18.23;45.05
61554;BME280;47425;51.976;5.326;2023-04-30T10:20:33;102247.63;;;18.36;42.97
61554;BME280;47425;51.976;5.326;2023-04-30T10:23:01;102239.41;;;18.16;44.57
61554;BME280;47425;51.976;5.326;2023-04-30T10:25:28;102237.47;;;18.21;43.60
61554;BME280;47425;51.976;5.326;2023-04-30T10:27:55;102231.00;;;18.01;43.36
61554;BME280;47425;51.976;5.326;2023-04-30T10:30:23;102228.09;;;18.10;44.14
61554;BME280;47425;51.976;5.326;2023-04-30T10:32:55;102225.22;;;18.17;43.96
61554;BME280;47425;51.976;5.326;2023-04-30T10:35:27;102236.38;;;18.28;44.26
61554;BME280;47425;51.976;5.326;2023-04-30T10:37:58;102242.00;;;18.47;44.08
61554;BME280;47425;51.976;5.326;2023-04-30T10:40:30;102232.06;;;18.54;43.33
61554;BME280;47425;51.976;5.326;2023-04-30T10:43:02;102230.91;;;18.63;44.16
61554;BME280;47425;51.976;5.326;2023-04-30T10:45:36;102225.94;;;18.78;42.41
61554;BME280;47425;51.976;5.326;2023-04-30T10:48:03;102219.28;;;18.67;42.69
61554;BME280;47425;51.976;5.326;2023-04-30T10:50:29;102230.56;;;18.73;42.70
61554;BME280;47425;51.976;5.326;2023-04-30T10:53:00;102214.94;;;18.64;43.60
61554;BME280;47425;51.976;5.326;2023-04-30T10:55:27;102213.13;;;18.65;43.28
61554;BME280;47425;51.976;5.326;2023-04-30T10:57:54;102217.19;;;18.76;43.36
61554;BME280;47425;51.976;5.326;2023-04-30T11:00:24;102208.31;;;18.76;43.43
61554;BME280;47425;51.976;5.326;2023-04-30T11:02:56;102203.78;;;18.79;42.96
61554;BME280;47425;51.976;5.326;2023-04-30T11:05:32;102201.00;;;18.84;43.56
61554;BME280;47425;51.976;5.326;2023-04-30T11:08:01;102205.38;;;18.85;41.56
61554;BME280;47425;51.976;5.326;2023-04-30T11:10:31;102196.59;;;18.83;43.37
61554;BME280;47425;51.976;5.326;2023-04-30T11:12:57;102198.34;;;18.84;41.71
61554;BME280;47425;51.976;5.326;2023-04-30T11:15:32;102194.81;;;18.84;42.29
61554;BME280;47425;51.976;5.326;2023-04-30T11:18:01;102186.00;;;18.83;42.58
61554;BME280;47425;51.976;5.326;2023-04-30T11:20:27;102190.78;;;18.99;42.59
61554;BME280;47425;51.976;5.326;2023-04-30T11:23:06;102184.56;;;19.00;40.97
61554;BME280;47425;51.976;5.326;2023-04-30T11:25:38;102187.22;;;19.00;42.30
61554;BME280;47425;51.976;5.326;2023-04-30T11:28:06;102183.22;;;19.13;41.42
61554;BME280;47425;51.976;5.326;2023-04-30T11:30:33;102176.75;;;19.20;41.96
61554;BME280;47425;51.976;5.326;2023-04-30T11:33:01;102174.13;;;19.20;42.49
61554;BME280;47425;51.976;5.326;2023-04-30T11:35:28;102167.69;;;19.27;41.48
61554;BME280;47425;51.976;5.326;2023-04-30T11:38:15;102165.94;;;19.26;41.57
61554;BME280;47425;51.976;5.326;2023-04-30T11:40:42;102165.09;;;19.26;41.74
61554;BME280;47425;51.976;5.326;2023-04-30T11:43:19;102161.16;;;19.36;41.06
61554;BME280;47425;51.976;5.326;2023-04-30T11:45:56;102154.97;;;19.36;41.69
61554;BME280;47425;51.976;5.326;2023-04-30T11:48:30;102152.00;;;19.45;40.94
61554;BME280;47425;51.976;5.326;2023-04-30T11:50:58;102148.09;;;19.55;40.81
61554;BME280;47425;51.976;5.326;2023-04-30T11:53:27;102145.56;;;19.51;41.29
61554;BME280;47425;51.976;5.326;2023-04-30T11:55:55;102141.38;;;19.69;41.08
61554;BME280;47425;51.976;5.326;2023-04-30T11:58:23;102144.81;;;19.71;40.02
61554;BME280;47425;51.976;5.326;2023-04-30T12:00:49;102138.78;;;19.43;38.78
61554;BME280;47425;51.976;5.326;2023-04-30T12:03:17;102133.50;;;19.66;40.52
61554;BME280;47425;51.976;5.326;2023-04-30T12:05:45;102134.03;;;19.52;39.12
61554;BME280;47425;51.976;5.326;2023-04-30T12:08:12;102133.50;;;19.66;40.45
61554;BME280;47425;51.976;5.326;2023-04-30T12:10:39;102133.75;;;19.83;39.50
61554;BME280;47425;51.976;5.326;2023-04-30T12:13:05;102131.00;;;19.86;40.19
61554;BME280;47425;51.976;5.326;2023-04-30T12:15:33;102136.81;;;19.96;40.55
61554;BME280;47425;51.976;5.326;2023-04-30T12:18:01;102126.09;;;19.98;40.52
61554;BME280;47425;51.976;5.326;2023-04-30T12:20:36;102127.22;;;20.14;40.46
61554;BME280;47425;51.976;5.326;2023-04-30T12:23:05;102121.00;;;20.36;40.21
61554;BME280;47425;51.976;5.326;2023-04-30T12:25:38;102124.28;;;20.42;38.35
61554;BME280;47425;51.976;5.326;2023-04-30T12:28:06;102120.84;;;20.40;37.55
61554;BME280;47425;51.976;5.326;2023-04-30T12:30:33;102123.19;;;20.26;37.42
61554;BME280;47425;51.976;5.326;2023-04-30T12:32:59;102120.47;;;20.50;38.00
61554;BME280;47425;51.976;5.326;2023-04-30T12:35:29;102115.00;;;20.53;36.88
61554;BME280;47425;51.976;5.326;2023-04-30T12:38:00;102105.78;;;20.61;38.51
61554;BME280;47425;51.976;5.326;2023-04-30T12:40:28;102114.25;;;20.71;38.51
61554;BME280;47425;51.976;5.326;2023-04-30T12:42:59;102107.88;;;20.75;39.09
61554;BME280;47425;51.976;5.326;2023-04-30T12:45:46;102111.06;;;20.84;38.54
61554;BME280;47425;51.976;5.326;2023-04-30T12:48:17;102108.59;;;21.00;38.58
61554;BME280;47425;51.976;5.326;2023-04-30T12:50:47;102100.84;;;21.14;37.24
61554;BME280;47425;51.976;5.326;2023-04-30T12:53:15;102097.91;;;21.20;37.96
61554;BME280;47425;51.976;5.326;2023-04-30T12:55:43;102092.28;;;21.26;37.08
61554;BME280;47425;51.976;5.326;2023-04-30T12:58:10;102091.16;;;21.32;37.57